Ocean Winner — A8PV2 — position and weather

sailwx.info

Track history (hours):
 
Tides and Currents Weather Stations Pressure Air Temp Water Temp Dewpoint Dewpoint Depression Visibility Wind Speed Wind Dir Waves Ship Positions

Ocean Winner

Last reported at 2018-May-27 08:00 UTC. Time now 2018-May-27 08:09 UTC.
Position N 58°16' E 020°21'.

Length 116 m; draft 5.5 m.

Type: Cargo ship. MMSI: 636013840.

Date/timePositionNaut miles runAvg speedWind from/ knotsBaromVisibWave heightAir tempDewpointWater temp
2018-May-27 08:00N 58°16' E 020°21'5 9.3
2018-May-27 07:29N 58°20' E 020°26'4 9.1
2018-May-27 07:00N 58°24' E 020°31'4 9.0
2018-May-27 06:30N 58°27' E 020°36'5 9.0
2018-May-27 05:59N 58°31' E 020°42'4 9.1
2018-May-27 05:30N 58°34' E 020°47'4 9.0
2018-May-27 05:01N 58°38' E 020°52'4 8.8
2018-May-27 04:30N 58°42' E 020°56'4 8.5
2018-May-27 04:00N 58°45' E 021°00'3 6.3
2018-May-27 03:30N 58°48' E 021°04'3 6.3
2018-May-27 03:00N 58°51' E 021°07'3 6.4
2018-May-27 02:30N 58°53' E 021°10'3 6.4
2018-May-27 02:01N 58°56' E 021°13'3 6.5
2018-May-27 01:31N 58°59' E 021°17'4 6.5
2018-May-27 00:58N 59°02' E 021°20'5 6.4
2018-May-27 00:14N 59°06' E 021°25'2 6.4
2018-May-26 23:59N 59°07' E 021°27'2 0.8
2018-May-26 21:23N 59°09' E 021°30'1 0.4
2018-May-26 20:05N 59°09' E 021°30'0 0.4
2018-May-26 19:59N 59°09' E 021°30'0 0.5
2018-May-26 19:23N 59°10' E 021°30'0 0.3
2018-May-26 18:59N 59°10' E 021°30'0 0.4
2018-May-26 18:29N 59°10' E 021°30'0 0.3
2018-May-26 17:59N 59°10' E 021°30'0 0.2
2018-May-26 17:29N 59°10' E 021°30'0 0.2
2018-May-26 16:59N 59°10' E 021°30'0 0.3
2018-May-26 16:29N 59°10' E 021°30'0 0.3
2018-May-26 15:59N 59°10' E 021°30'0 0.3
2018-May-26 15:29N 59°11' E 021°30'0 0.3
2018-May-26 14:56N 59°11' E 021°30'0 0.3
2018-May-26 14:20N 59°11' E 021°30'0 0.3
2018-May-26 13:56N 59°11' E 021°30'0 0.3
2018-May-26 13:29N 59°11' E 021°31'0 0.3
2018-May-26 12:59N 59°11' E 021°31'0 0.3
2018-May-26 12:29N 59°11' E 021°31'0 0.3
2018-May-26 11:26N 59°12' E 021°31'0 0.3
2018-May-26 10:41N 59°12' E 021°31'0 0.3
2018-May-26 10:29N 59°12' E 021°31'0 0.3
2018-May-26 09:56N 59°12' E 021°32'0 0.4
2018-May-26 09:29N 59°12' E 021°32'0 0.4
2018-May-26 08:59N 59°12' E 021°32'0 0.4
2018-May-26 08:26N 59°12' E 021°33'0 0.4
2018-May-26 07:59N 59°12' E 021°33'0 0.5
2018-May-26 07:29N 59°13' E 021°33'0 0.4
2018-May-26 06:59N 59°13' E 021°34'0 0.4
2018-May-26 06:29N 59°13' E 021°34'0 0.3
2018-May-26 05:29N 59°13' E 021°35'0 0.3
2018-May-26 04:56N 59°13' E 021°35'0 0.2
2018-May-26 04:26N 59°13' E 021°35'0 0.3
2018-May-26 03:59N 59°13' E 021°35'0 0.3
2018-May-26 03:29N 59°13' E 021°36'0 0.3
2018-May-26 02:59N 59°13' E 021°36'0 0.3
2018-May-26 02:29N 59°13' E 021°36'0 0.3
2018-May-26 01:59N 59°13' E 021°37'0 0.3
2018-May-26 01:26N 59°13' E 021°37'0 0.4
2018-May-26 00:59N 59°13' E 021°37'0 0.3
2018-May-26 00:26N 59°12' E 021°37'0 0.5
2018-May-25 23:59N 59°12' E 021°38'0 0.5
2018-May-25 23:26N 59°12' E 021°38'0 0.6
2018-May-25 22:59N 59°12' E 021°39'0 0.6
2018-May-25 22:26N 59°12' E 021°39'0 0.7
2018-May-25 21:59N 59°12' E 021°40'0 0.7
2018-May-25 21:29N 59°11' E 021°40'0 0.7
2018-May-25 20:59N 59°11' E 021°41'0 0.5
2018-May-25 20:29N 59°11' E 021°41'3 7.1
2018-May-25 20:00N 59°13' E 021°46'510.9
2018-May-25 19:30N 59°17' E 021°54'511.0
2018-May-25 19:00N 59°20' E 022°03'510.9
2018-May-25 18:30N 59°23' E 022°11'510.8
2018-May-25 18:00N 59°27' E 022°20'510.8
2018-May-25 17:30N 59°30' E 022°28'510.7
2018-May-25 17:00N 59°32' E 022°38'510.8
2018-May-25 16:30N 59°34' E 022°48'611.0
2018-May-25 16:00N 59°35' E 022°59'510.9
2018-May-25 15:30N 59°37' E 023°09'611.1
2018-May-25 15:00N 59°38' E 023°20'611.3
2018-May-25 14:30N 59°40' E 023°31'611.3
2018-May-25 14:00N 59°41' E 023°41'611.2
2018-May-25 13:30N 59°43' E 023°52'611.3
2018-May-25 13:00N 59°44' E 024°03'611.4
2018-May-25 12:30N 59°46' E 024°13'611.5
2018-May-25 12:00N 59°47' E 024°25'611.1
2018-May-25 11:30N 59°49' E 024°35'611.2
2018-May-25 11:00N 59°50' E 024°46'511.0
2018-May-25 10:30N 59°51' E 024°57'510.9
2018-May-25 10:00N 59°52' E 025°07'611.0
2018-May-25 09:30N 59°53' E 025°18'510.7
2018-May-25 09:00N 59°53' E 025°29'2210.4
2018-May-25 06:51N 59°59' E 026°12'3 9.7
2018-May-25 06:31N 59°59' E 026°19'5 9.7
2018-May-25 05:58N 60°01' E 026°29'4 9.8
2018-May-25 05:30N 60°01' E 026°38'510.6
2018-May-25 05:00N 60°00' E 026°48'510.5
2018-May-25 04:29N 59°59' E 026°59'4 8.8
2018-May-25 04:00N 60°01' E 027°07'510.1
2018-May-25 03:30N 60°03' E 027°16'510.1
2018-May-25 03:00N 60°06' E 027°24'611.0
2018-May-25 02:28N 60°09' E 027°35'4 9.2
2018-May-25 02:00N 60°11' E 027°42'5 9.6
2018-May-25 01:30N 60°11' E 027°51'5 9.2
2018-May-25 01:00N 60°10' E 028°00'4 7.5
2018-May-25 00:30N 60°08' E 028°06'4 8.5
2018-May-25 00:00N 60°03' E 028°08'4 8.8
2018-May-24 23:30N 59°59' E 028°09'5 9.0
2018-May-24 23:00N 59°55' E 028°11'4 9.0
2018-May-24 22:30N 59°50' E 028°12'5 9.1
2018-May-24 22:00N 59°46' E 028°14'4 7.8
2018-May-24 21:30N 59°42' E 028°18'3 6.1
2018-May-24 21:00N 59°42' E 028°24'2 3.5
2018-May-24 20:30N 59°41' E 028°26'0 0.1
2018-May-24 20:00N 59°41' E 028°26'0 0.0
2018-May-24 19:30N 59°41' E 028°26'0 0.0
2018-May-24 19:00N 59°41' E 028°26'0 0.0
2018-May-24 18:30N 59°41' E 028°26'0 0.0
2018-May-24 17:58N 59°41' E 028°26'0 0.0
2018-May-24 17:30N 59°41' E 028°26'0 0.0
2018-May-24 16:57N 59°41' E 028°26'0 0.0
2018-May-24 16:30N 59°41' E 028°26'0 0.0
2018-May-24 16:00N 59°41' E 028°26'0 0.0
2018-May-24 15:30N 59°41' E 028°26'0 0.0
2018-May-24 15:00N 59°41' E 028°26'0 0.0
2018-May-24 14:30N 59°41' E 028°26'0 0.0
2018-May-24 14:00N 59°41' E 028°26'0 0.0
2018-May-24 08:57N 59°41' E 028°26'0 0.0
2018-May-24 08:27N 59°41' E 028°26'0 0.0
2018-May-24 07:42N 59°41' E 028°26'0 0.0
2018-May-24 07:27N 59°41' E 028°26'0 0.0
2018-May-24 06:57N 59°41' E 028°26'0 0.0
2018-May-24 06:30N 59°41' E 028°26'0 0.0
2018-May-24 05:57N 59°41' E 028°26'0 0.0
2018-May-24 05:30N 59°41' E 028°26'0 0.0
2018-May-24 05:00N 59°41' E 028°26'0 0.0
2018-May-24 04:30N 59°41' E 028°26'0 0.0
2018-May-24 04:00N 59°41' E 028°26'0 0.0
2018-May-24 03:27N 59°41' E 028°26'0 0.0
2018-May-24 03:00N 59°41' E 028°26'0 0.0
2018-May-24 02:30N 59°41' E 028°26'0 0.0
2018-May-24 02:00N 59°41' E 028°26'0 0.0
2018-May-24 01:30N 59°41' E 028°26'0 0.0
2018-May-24 01:00N 59°41' E 028°26'0 0.0
2018-May-24 00:30N 59°41' E 028°26'0 0.0
2018-May-24 00:00N 59°41' E 028°26'0 0.0
2018-May-23 23:30N 59°41' E 028°26'0 0.0
2018-May-23 22:51N 59°41' E 028°26'0 0.0
2018-May-23 22:29N 59°41' E 028°26'0 0.0
2018-May-23 21:54N 59°41' E 028°26'0 0.0
2018-May-23 21:24N 59°41' E 028°26'0 0.0
2018-May-23 20:54N 59°41' E 028°26'0 0.0
2018-May-23 20:24N 59°41' E 028°26'0 0.0
2018-May-23 19:54N 59°41' E 028°26'0 0.0
2018-May-23 19:24N 59°41' E 028°26'0 0.0
2018-May-23 18:57N 59°41' E 028°26'0 0.0
2018-May-23 18:27N 59°41' E 028°26'0 0.0
2018-May-23 17:57N 59°41' E 028°26'0 0.0
2018-May-23 17:27N 59°41' E 028°26'0 0.0
2018-May-23 16:57N 59°41' E 028°26'0 0.0
2018-May-23 16:27N 59°41' E 028°26'0 0.0
2018-May-23 16:00N 59°41' E 028°26'0 0.0
2018-May-23 15:30N 59°41' E 028°26'0 0.0
2018-May-23 15:00N 59°41' E 028°26'0 0.0
2018-May-23 14:30N 59°41' E 028°26'0 0.0
2018-May-23 14:00N 59°41' E 028°26'0 0.0
2018-May-23 13:30N 59°41' E 028°26'0 0.0
2018-May-23 12:57N 59°41' E 028°26'0 0.0
2018-May-23 12:30N 59°41' E 028°26'0 0.0
2018-May-23 12:00N 59°41' E 028°26'0 0.0
2018-May-23 11:30N 59°41' E 028°26'0 0.0
2018-May-23 11:00N 59°41' E 028°26'0 0.0
2018-May-23 10:30N 59°41' E 028°26'0 0.0
2018-May-23 10:00N 59°41' E 028°26'0 0.0
2018-May-23 09:30N 59°41' E 028°26'0 0.0
2018-May-23 09:00N 59°41' E 028°26'0 0.0
2018-May-23 08:29N 59°41' E 028°26'0 0.0
2018-May-23 07:58N 59°41' E 028°26'0 0.0
2018-May-23 07:28N 59°41' E 028°26'0 0.0
2018-May-23 06:54N 59°41' E 028°26'0 0.0
2018-May-23 06:24N 59°41' E 028°26'0 0.0
2018-May-23 05:54N 59°41' E 028°26'0 0.0
2018-May-23 05:24N 59°41' E 028°26'0 0.0
2018-May-23 04:54N 59°41' E 028°26'0 0.0
2018-May-23 04:27N 59°41' E 028°26'0 0.0
2018-May-23 03:57N 59°41' E 028°26'0 0.0
2018-May-23 03:24N 59°41' E 028°26'0 0.0
2018-May-23 02:57N 59°41' E 028°26'0 0.0
2018-May-23 02:27N 59°41' E 028°26'0 0.0
2018-May-23 02:00N 59°41' E 028°26'0 0.0
2018-May-23 01:30N 59°41' E 028°26'0 0.0
2018-May-23 01:00N 59°41' E 028°26'0 0.0
2018-May-23 00:30N 59°41' E 028°26'0 0.0
2018-May-23 00:00N 59°41' E 028°26'0 0.0
2018-May-22 23:30N 59°41' E 028°26'0 0.0
2018-May-22 23:00N 59°41' E 028°26'0 0.0
2018-May-22 22:30N 59°41' E 028°26'0 0.0
2018-May-22 22:00N 59°41' E 028°26'0 0.0
2018-May-22 21:30N 59°41' E 028°26'0 0.0
2018-May-22 21:00N 59°41' E 028°26'0 0.0
2018-May-22 20:30N 59°41' E 028°26'0 0.0
2018-May-22 20:00N 59°41' E 028°26'0 0.0
2018-May-22 19:30N 59°41' E 028°26'0 0.0
2018-May-22 19:00N 59°41' E 028°26'0 0.0
2018-May-22 18:21N 59°41' E 028°26'0 0.0
2018-May-22 17:51N 59°41' E 028°26'0 0.0
2018-May-22 17:24N 59°41' E 028°26'0 0.0
2018-May-22 16:54N 59°41' E 028°26'0 0.0
2018-May-22 16:24N 59°41' E 028°26'0 0.0
2018-May-22 15:54N 59°41' E 028°26'0 0.0
2018-May-22 15:24N 59°41' E 028°26'0 0.0
2018-May-22 14:54N 59°41' E 028°26'0 0.0
2018-May-22 14:27N 59°41' E 028°26'0 0.0
2018-May-22 13:57N 59°41' E 028°26'0 0.0
2018-May-22 13:30N 59°41' E 028°26'0 0.0
2018-May-22 13:00N 59°41' E 028°26'0 0.0
2018-May-22 12:30N 59°41' E 028°26'0 0.0
2018-May-22 12:00N 59°41' E 028°26'0 0.0
2018-May-22 11:30N 59°41' E 028°26'0 0.0
2018-May-22 10:54N 59°41' E 028°26'0 0.0
2018-May-22 10:30N 59°41' E 028°26'0 0.0
2018-May-22 10:00N 59°41' E 028°26'0 0.0
2018-May-22 09:30N 59°41' E 028°26'0 0.0
2018-May-22 09:00N 59°41' E 028°26'0 0.0
2018-May-22 08:30N 59°41' E 028°26'0 0.0
2018-May-22 08:00N 59°41' E 028°26'0 0.0
2018-May-22 07:30N 59°41' E 028°26'0 0.0
2018-May-22 07:00N 59°41' E 028°26'0 0.0
2018-May-22 06:30N 59°41' E 028°26'0 0.0
2018-May-22 06:00N 59°41' E 028°26'0 0.0
2018-May-22 05:28N 59°41' E 028°26'0 0.0
2018-May-22 05:00N 59°41' E 028°26'0 0.0
2018-May-22 04:27N 59°41' E 028°26'0 0.0
2018-May-22 03:57N 59°41' E 028°26'0 0.0
2018-May-22 03:29N 59°41' E 028°26'0 0.0
2018-May-22 02:54N 59°41' E 028°26'0 0.0
2018-May-22 02:24N 59°41' E 028°26'0 0.0
2018-May-22 01:54N 59°41' E 028°26'0 0.0
2018-May-22 01:24N 59°41' E 028°26'0 0.0
2018-May-22 00:54N 59°41' E 028°26'0 0.0
2018-May-22 00:24N 59°41' E 028°26'0 0.0
2018-May-21 23:57N 59°41' E 028°26'0 0.0
2018-May-21 23:27N 59°41' E 028°26'0 0.0
2018-May-21 22:57N 59°41' E 028°26'0 0.0
2018-May-21 22:27N 59°41' E 028°26'0 0.0
2018-May-21 21:57N 59°41' E 028°26'0 0.0
2018-May-21 21:27N 59°41' E 028°26'0 0.0
2018-May-21 21:00N 59°41' E 028°26'0 0.0
2018-May-21 20:30N 59°41' E 028°26'0 0.0
2018-May-21 19:56N 59°41' E 028°26'0 0.0
2018-May-21 19:18N 59°41' E 028°26'0 0.0
2018-May-21 18:54N 59°41' E 028°26'0 0.0
2018-May-21 18:26N 59°41' E 028°26'0 0.0
2018-May-21 18:00N 59°41' E 028°26'0 0.0
2018-May-21 17:30N 59°41' E 028°26'0 0.0
2018-May-21 17:00N 59°41' E 028°26'0 0.0
2018-May-21 16:21N 59°41' E 028°26'0 0.0
2018-May-21 15:51N 59°41' E 028°26'0 0.0
2018-May-21 15:24N 59°41' E 028°26'0 0.0
2018-May-21 14:54N 59°41' E 028°26'0 0.0
2018-May-21 14:25N 59°41' E 028°26'0 0.0
2018-May-21 13:54N 59°41' E 028°26'0 0.0
2018-May-21 13:24N 59°41' E 028°26'0 0.0
2018-May-21 12:54N 59°41' E 028°26'0 0.0
2018-May-21 12:27N 59°41' E 028°26'0 0.0
2018-May-21 11:57N 59°41' E 028°26'0 0.0
2018-May-21 11:27N 59°41' E 028°26'0 0.0
2018-May-21 10:57N 59°41' E 028°26'0 0.0
2018-May-21 10:27N 59°41' E 028°26'0 0.0
2018-May-21 10:00N 59°41' E 028°26'0 0.0
2018-May-21 09:30N 59°41' E 028°26'0 0.0
2018-May-21 09:00N 59°41' E 028°26'0 0.0
2018-May-21 08:30N 59°41' E 028°26'0 0.0
2018-May-21 08:00N 59°41' E 028°26'0 0.0
2018-May-21 07:30N 59°41' E 028°26'0 0.0
2018-May-21 07:00N 59°41' E 028°26'0 0.0
2018-May-21 06:30N 59°41' E 028°26'0 0.0
2018-May-21 06:00N 59°41' E 028°26'0 0.0
2018-May-21 05:30N 59°41' E 028°26'0 0.0
2018-May-21 05:00N 59°41' E 028°26'0 0.0
2018-May-21 04:24N 59°41' E 028°26'0 0.0
2018-May-21 03:54N 59°41' E 028°26'0 0.0
2018-May-21 03:27N 59°41' E 028°26'0 0.0
2018-May-21 02:53N 59°41' E 028°26'0 0.0
2018-May-21 01:32N 59°41' E 028°26'0 0.0
2018-May-21 01:23N 59°41' E 028°26'0 0.5
2018-May-21 00:59N 59°41' E 028°25'3 5.2
2018-May-21 00:26N 59°42' E 028°20'3 5.3
2018-May-20 23:57N 59°43' E 028°16'3 5.3
2018-May-20 23:25N 59°46' E 028°13'0 0.2
2018-May-20 22:53N 59°46' E 028°13'0 0.0
2018-May-20 22:27N 59°46' E 028°13'0 0.0
2018-May-20 21:48N 59°46' E 028°13'0 0.1
2018-May-20 21:27N 59°46' E 028°13'0 0.1
2018-May-20 20:58N 59°46' E 028°13'0 0.1
2018-May-20 20:28N 59°46' E 028°13'0 0.0
2018-May-20 19:58N 59°46' E 028°13'0 0.1
2018-May-20 19:16N 59°46' E 028°13'0 0.0
2018-May-20 18:58N 59°46' E 028°13'0 0.1
2018-May-20 18:28N 59°46' E 028°13'0 0.1
2018-May-20 17:58N 59°46' E 028°13'0 0.0
2018-May-20 17:28N 59°46' E 028°13'0 0.1
2018-May-20 16:57N 59°46' E 028°13'0 0.0
2018-May-20 16:19N 59°46' E 028°13'0 0.1
2018-May-20 16:00N 59°46' E 028°13'0 0.1
2018-May-20 15:29N 59°46' E 028°13'0 0.0
2018-May-20 14:52N 59°46' E 028°13'0 0.0
2018-May-20 14:22N 59°46' E 028°13'0 0.1
2018-May-20 13:59N 59°46' E 028°13'0 0.1
2018-May-20 13:29N 59°46' E 028°13'0 0.1
2018-May-20 12:55N 59°46' E 028°13'0 0.0
2018-May-20 12:25N 59°46' E 028°13'0 0.0
2018-May-20 11:55N 59°46' E 028°13'0 0.0
2018-May-20 11:25N 59°46' E 028°13'0 0.0
2018-May-20 10:55N 59°46' E 028°13'0 0.0
2018-May-20 10:28N 59°46' E 028°13'0 0.0
2018-May-20 09:58N 59°46' E 028°13'0 0.1
2018-May-20 09:28N 59°46' E 028°13'0 0.0
2018-May-20 08:58N 59°46' E 028°13'0 0.0
2018-May-20 08:28N 59°46' E 028°13'0 0.0
2018-May-20 07:58N 59°46' E 028°13'0 0.0
2018-May-20 07:28N 59°46' E 028°13'0 0.1
2018-May-20 06:58N 59°46' E 028°13'0 0.5
2018-May-20 06:30N 59°46' E 028°13'3 6.2
2018-May-20 06:00N 59°49' E 028°11'510.4
2018-May-20 05:30N 59°54' E 028°09'510.8
2018-May-20 05:00N 59°60' E 028°08'511.0
2018-May-20 04:30N 60°05' E 028°06'5 9.4
2018-May-20 04:00N 60°09' E 028°01'510.9
2018-May-20 03:30N 60°10' E 027°51'510.5
2018-May-20 03:00N 60°09' E 027°41'914.4
2018-May-20 02:23N 60°04' E 027°25'510.4
2018-May-20 01:53N 60°02' E 027°16'611.2
2018-May-20 01:20N 59°58' E 027°06'2 6.2
2018-May-20 01:00N 59°58' E 027°02'510.9
2018-May-20 00:30N 59°59' E 026°51'511.0
2018-May-20 00:00N 59°60' E 026°40'511.1
2018-May-19 23:30N 59°58' E 026°30'611.0
2018-May-19 23:00N 59°57' E 026°19'611.1
2018-May-19 22:29N 59°55' E 026°08'611.1
2018-May-19 21:59N 59°54' E 025°58'510.8
2018-May-19 21:30N 59°52' E 025°48'610.8
2018-May-19 20:58N 59°51' E 025°36'510.7
2018-May-19 20:29N 59°50' E 025°26'510.5
2018-May-19 20:00N 59°49' E 025°16'510.5
2018-May-19 19:30N 59°48' E 025°06'510.4
2018-May-19 19:00N 59°47' E 024°56'510.8
2018-May-19 18:30N 59°45' E 024°46'510.9
2018-May-19 18:00N 59°44' E 024°35'510.9
2018-May-19 17:30N 59°43' E 024°24'810.9
2018-May-19 16:44N 59°41' E 024°09'510.8
2018-May-19 16:18N 59°39' E 023°60'310.9
2018-May-19 15:59N 59°38' E 023°53'511.1
2018-May-19 15:30N 59°36' E 023°44'611.5
2018-May-19 15:00N 59°34' E 023°33'611.3
2018-May-19 14:30N 59°33' E 023°22'611.1
2018-May-19 14:00N 59°31' E 023°12'611.1
2018-May-19 13:30N 59°29' E 023°02'611.1
2018-May-19 13:00N 59°27' E 022°51'2710.7
2018-May-19 10:29N 59°13' E 022°06'610.5
2018-May-19 09:55N 59°09' E 021°57'910.3
2018-May-19 09:05N 59°03' E 021°45'110.2
2018-May-19 09:00N 59°03' E 021°44'510.2
2018-May-19 08:30N 58°58' E 021°38'510.1
2018-May-19 08:00N 58°54' E 021°32'510.0
2018-May-19 07:30N 58°50' E 021°26'510.2
2018-May-19 06:59N 58°46' E 021°20'177 9.6
2018-May-18 12:36N 56°30' E 017°48'3 9.3
2018-May-18 12:16N 56°28' E 017°44'5 9.2
2018-May-18 11:42N 56°25' E 017°36'3 9.2
2018-May-18 11:22N 56°23' E 017°32'5 9.0
2018-May-18 10:51N 56°20' E 017°25'4 9.0
2018-May-18 10:28N 56°18' E 017°20'6 9.2
2018-May-18 09:49N 56°15' E 017°12'3 9.3
2018-May-18 09:30N 56°13' E 017°07'5 9.3
2018-May-18 09:00N 56°10' E 017°01'5 9.1
2018-May-18 08:30N 56°07' E 016°54'5 9.1
2018-May-18 08:00N 56°04' E 016°48'5 9.4
2018-May-18 07:30N 56°02' E 016°41'5 9.7
2018-May-18 07:00N 55°59' E 016°34'5 9.8
2018-May-18 06:30N 55°57' E 016°26'5 9.9
2018-May-18 06:00N 55°54' E 016°18'510.3
2018-May-18 05:30N 55°52' E 016°10'510.6
2018-May-18 05:00N 55°49' E 016°02'510.5
2018-May-18 04:30N 55°47' E 015°54'510.7
2018-May-18 04:00N 55°44' E 015°45'510.8
2018-May-18 03:30N 55°42' E 015°37'510.6
2018-May-18 03:00N 55°39' E 015°29'510.6
2018-May-18 02:30N 55°37' E 015°20'510.7
2018-May-18 02:00N 55°34' E 015°12'510.7
2018-May-18 01:30N 55°32' E 015°04'510.8
2018-May-18 01:00N 55°29' E 014°55'510.8
2018-May-18 00:30N 55°27' E 014°47'511.0
2018-May-18 00:00N 55°24' E 014°38'611.2
2018-May-17 23:30N 55°20' E 014°32'611.1
2018-May-17 23:00N 55°15' E 014°26'610.7
2018-May-17 22:24N 55°11' E 014°18'611.0
2018-May-17 21:51N 55°10' E 014°07'910.7
2018-May-17 21:01N 55°10' E 013°52'110.6
2018-May-17 20:54N 55°10' E 013°49'510.6
2018-May-17 20:27N 55°11' E 013°41'3710.5
2018-May-17 16:58N 55°17' E 012°38'710.8
2018-May-17 16:17N 55°25' E 012°39'311.6
2018-May-17 16:00N 55°28' E 012°40'611.5
2018-May-17 15:30N 55°33' E 012°42'612.1
2018-May-17 15:00N 55°39' E 012°41'611.9
2018-May-17 14:30N 55°45' E 012°41'611.7
2018-May-17 14:00N 55°51' E 012°39'611.9
2018-May-17 13:30N 55°57' E 012°37'611.2
2018-May-17 13:00N 56°02' E 012°39'2811.8
2018-May-17 10:39N 56°21' E 012°01'211.6
2018-May-17 10:29N 56°23' E 012°00'611.4
2018-May-17 09:56N 56°29' E 011°59'511.6
2018-May-17 09:29N 56°34' E 011°57'1611.9
2018-May-17 08:10N 56°49' E 011°49'  
Track history (hours):
 
Tides and Currents Weather Stations Pressure Air Temp Water Temp Dewpoint Dewpoint Depression Visibility Wind Speed Wind Dir Waves Ship Positions

Ocean Winner

Last reported at 2018-May-27 08:00 UTC. Time now 2018-May-27 08:09 UTC.
Position N 58°16' E 020°21'.

Length 116 m; draft 5.5 m.

Type: Cargo ship. MMSI: 636013840.

Date/timePositionNaut miles runAvg speedWind from/ knotsBaromVisibWave heightAir tempDewpointWater temp
2018-May-27 08:00N 58°16' E 020°21'5 9.3
2018-May-27 07:29N 58°20' E 020°26'4 9.1
2018-May-27 07:00N 58°24' E 020°31'4 9.0
2018-May-27 06:30N 58°27' E 020°36'5 9.0
2018-May-27 05:59N 58°31' E 020°42'4 9.1
2018-May-27 05:30N 58°34' E 020°47'4 9.0
2018-May-27 05:01N 58°38' E 020°52'4 8.8
2018-May-27 04:30N 58°42' E 020°56'4 8.5
2018-May-27 04:00N 58°45' E 021°00'3 6.3
2018-May-27 03:30N 58°48' E 021°04'3 6.3
2018-May-27 03:00N 58°51' E 021°07'3 6.4
2018-May-27 02:30N 58°53' E 021°10'3 6.4
2018-May-27 02:01N 58°56' E 021°13'3 6.5
2018-May-27 01:31N 58°59' E 021°17'4 6.5
2018-May-27 00:58N 59°02' E 021°20'5 6.4
2018-May-27 00:14N 59°06' E 021°25'2 6.4
2018-May-26 23:59N 59°07' E 021°27'2 0.8
2018-May-26 21:23N 59°09' E 021°30'1 0.4
2018-May-26 20:05N 59°09' E 021°30'0 0.4
2018-May-26 19:59N 59°09' E 021°30'0 0.5
2018-May-26 19:23N 59°10' E 021°30'0 0.3
2018-May-26 18:59N 59°10' E 021°30'0 0.4
2018-May-26 18:29N 59°10' E 021°30'0 0.3
2018-May-26 17:59N 59°10' E 021°30'0 0.2
2018-May-26 17:29N 59°10' E 021°30'0 0.2
2018-May-26 16:59N 59°10' E 021°30'0 0.3
2018-May-26 16:29N 59°10' E 021°30'0 0.3
2018-May-26 15:59N 59°10' E 021°30'0 0.3
2018-May-26 15:29N 59°11' E 021°30'0 0.3
2018-May-26 14:56N 59°11' E 021°30'0 0.3
2018-May-26 14:20N 59°11' E 021°30'0 0.3
2018-May-26 13:56N 59°11' E 021°30'0 0.3
2018-May-26 13:29N 59°11' E 021°31'0 0.3
2018-May-26 12:59N 59°11' E 021°31'0 0.3
2018-May-26 12:29N 59°11' E 021°31'0 0.3
2018-May-26 11:26N 59°12' E 021°31'0 0.3
2018-May-26 10:41N 59°12' E 021°31'0 0.3
2018-May-26 10:29N 59°12' E 021°31'0 0.3
2018-May-26 09:56N 59°12' E 021°32'0 0.4
2018-May-26 09:29N 59°12' E 021°32'0 0.4
2018-May-26 08:59N 59°12' E 021°32'0 0.4
2018-May-26 08:26N 59°12' E 021°33'0 0.4
2018-May-26 07:59N 59°12' E 021°33'0 0.5
2018-May-26 07:29N 59°13' E 021°33'0 0.4
2018-May-26 06:59N 59°13' E 021°34'0 0.4
2018-May-26 06:29N 59°13' E 021°34'0 0.3
2018-May-26 05:29N 59°13' E 021°35'0 0.3
2018-May-26 04:56N 59°13' E 021°35'0 0.2
2018-May-26 04:26N 59°13' E 021°35'0 0.3
2018-May-26 03:59N 59°13' E 021°35'0 0.3
2018-May-26 03:29N 59°13' E 021°36'0 0.3
2018-May-26 02:59N 59°13' E 021°36'0 0.3
2018-May-26 02:29N 59°13' E 021°36'0 0.3
2018-May-26 01:59N 59°13' E 021°37'0 0.3
2018-May-26 01:26N 59°13' E 021°37'0 0.4
2018-May-26 00:59N 59°13' E 021°37'0 0.3
2018-May-26 00:26N 59°12' E 021°37'0 0.5
2018-May-25 23:59N 59°12' E 021°38'0 0.5
2018-May-25 23:26N 59°12' E 021°38'0 0.6
2018-May-25 22:59N 59°12' E 021°39'0 0.6
2018-May-25 22:26N 59°12' E 021°39'0 0.7
2018-May-25 21:59N 59°12' E 021°40'0 0.7
2018-May-25 21:29N 59°11' E 021°40'0 0.7
2018-May-25 20:59N 59°11' E 021°41'0 0.5
2018-May-25 20:29N 59°11' E 021°41'3 7.1
2018-May-25 20:00N 59°13' E 021°46'510.9
2018-May-25 19:30N 59°17' E 021°54'511.0
2018-May-25 19:00N 59°20' E 022°03'510.9
2018-May-25 18:30N 59°23' E 022°11'510.8
2018-May-25 18:00N 59°27' E 022°20'510.8
2018-May-25 17:30N 59°30' E 022°28'510.7
2018-May-25 17:00N 59°32' E 022°38'510.8
2018-May-25 16:30N 59°34' E 022°48'611.0
2018-May-25 16:00N 59°35' E 022°59'510.9
2018-May-25 15:30N 59°37' E 023°09'611.1
2018-May-25 15:00N 59°38' E 023°20'611.3
2018-May-25 14:30N 59°40' E 023°31'611.3
2018-May-25 14:00N 59°41' E 023°41'611.2
2018-May-25 13:30N 59°43' E 023°52'611.3
2018-May-25 13:00N 59°44' E 024°03'611.4
2018-May-25 12:30N 59°46' E 024°13'611.5
2018-May-25 12:00N 59°47' E 024°25'611.1
2018-May-25 11:30N 59°49' E 024°35'611.2
2018-May-25 11:00N 59°50' E 024°46'511.0
2018-May-25 10:30N 59°51' E 024°57'510.9
2018-May-25 10:00N 59°52' E 025°07'611.0
2018-May-25 09:30N 59°53' E 025°18'510.7
2018-May-25 09:00N 59°53' E 025°29'2210.4
2018-May-25 06:51N 59°59' E 026°12'3 9.7
2018-May-25 06:31N 59°59' E 026°19'5 9.7
2018-May-25 05:58N 60°01' E 026°29'4 9.8
2018-May-25 05:30N 60°01' E 026°38'510.6
2018-May-25 05:00N 60°00' E 026°48'510.5
2018-May-25 04:29N 59°59' E 026°59'4 8.8
2018-May-25 04:00N 60°01' E 027°07'510.1
2018-May-25 03:30N 60°03' E 027°16'510.1
2018-May-25 03:00N 60°06' E 027°24'611.0
2018-May-25 02:28N 60°09' E 027°35'4 9.2
2018-May-25 02:00N 60°11' E 027°42'5 9.6
2018-May-25 01:30N 60°11' E 027°51'5 9.2
2018-May-25 01:00N 60°10' E 028°00'4 7.5
2018-May-25 00:30N 60°08' E 028°06'4 8.5
2018-May-25 00:00N 60°03' E 028°08'4 8.8
2018-May-24 23:30N 59°59' E 028°09'5 9.0
2018-May-24 23:00N 59°55' E 028°11'4 9.0
2018-May-24 22:30N 59°50' E 028°12'5 9.1
2018-May-24 22:00N 59°46' E 028°14'4 7.8
2018-May-24 21:30N 59°42' E 028°18'3 6.1
2018-May-24 21:00N 59°42' E 028°24'2 3.5
2018-May-24 20:30N 59°41' E 028°26'0 0.1
2018-May-24 20:00N 59°41' E 028°26'0 0.0
2018-May-24 19:30N 59°41' E 028°26'0 0.0
2018-May-24 19:00N 59°41' E 028°26'0 0.0
2018-May-24 18:30N 59°41' E 028°26'0 0.0
2018-May-24 17:58N 59°41' E 028°26'0 0.0
2018-May-24 17:30N 59°41' E 028°26'0 0.0
2018-May-24 16:57N 59°41' E 028°26'0 0.0
2018-May-24 16:30N 59°41' E 028°26'0 0.0
2018-May-24 16:00N 59°41' E 028°26'0 0.0
2018-May-24 15:30N 59°41' E 028°26'0 0.0
2018-May-24 15:00N 59°41' E 028°26'0 0.0
2018-May-24 14:30N 59°41' E 028°26'0 0.0
2018-May-24 14:00N 59°41' E 028°26'0 0.0
2018-May-24 08:57N 59°41' E 028°26'0 0.0
2018-May-24 08:27N 59°41' E 028°26'0 0.0
2018-May-24 07:42N 59°41' E 028°26'0 0.0
2018-May-24 07:27N 59°41' E 028°26'0 0.0
2018-May-24 06:57N 59°41' E 028°26'0 0.0
2018-May-24 06:30N 59°41' E 028°26'0 0.0
2018-May-24 05:57N 59°41' E 028°26'0 0.0
2018-May-24 05:30N 59°41' E 028°26'0 0.0
2018-May-24 05:00N 59°41' E 028°26'0 0.0
2018-May-24 04:30N 59°41' E 028°26'0 0.0
2018-May-24 04:00N 59°41' E 028°26'0 0.0
2018-May-24 03:27N 59°41' E 028°26'0 0.0
2018-May-24 03:00N 59°41' E 028°26'0 0.0
2018-May-24 02:30N 59°41' E 028°26'0 0.0
2018-May-24 02:00N 59°41' E 028°26'0 0.0
2018-May-24 01:30N 59°41' E 028°26'0 0.0
2018-May-24 01:00N 59°41' E 028°26'0 0.0
2018-May-24 00:30N 59°41' E 028°26'0 0.0
2018-May-24 00:00N 59°41' E 028°26'0 0.0
2018-May-23 23:30N 59°41' E 028°26'0 0.0
2018-May-23 22:51N 59°41' E 028°26'0 0.0
2018-May-23 22:29N 59°41' E 028°26'0 0.0
2018-May-23 21:54N 59°41' E 028°26'0 0.0
2018-May-23 21:24N 59°41' E 028°26'0 0.0
2018-May-23 20:54N 59°41' E 028°26'0 0.0
2018-May-23 20:24N 59°41' E 028°26'0 0.0
2018-May-23 19:54N 59°41' E 028°26'0 0.0
2018-May-23 19:24N 59°41' E 028°26'0 0.0
2018-May-23 18:57N 59°41' E 028°26'0 0.0
2018-May-23 18:27N 59°41' E 028°26'0 0.0
2018-May-23 17:57N 59°41' E 028°26'0 0.0
2018-May-23 17:27N 59°41' E 028°26'0 0.0
2018-May-23 16:57N 59°41' E 028°26'0 0.0
2018-May-23 16:27N 59°41' E 028°26'0 0.0
2018-May-23 16:00N 59°41' E 028°26'0 0.0
2018-May-23 15:30N 59°41' E 028°26'0 0.0
2018-May-23 15:00N 59°41' E 028°26'0 0.0
2018-May-23 14:30N 59°41' E 028°26'0 0.0
2018-May-23 14:00N 59°41' E 028°26'0 0.0
2018-May-23 13:30N 59°41' E 028°26'0 0.0
2018-May-23 12:57N 59°41' E 028°26'0 0.0
2018-May-23 12:30N 59°41' E 028°26'0 0.0
2018-May-23 12:00N 59°41' E 028°26'0 0.0
2018-May-23 11:30N 59°41' E 028°26'0 0.0
2018-May-23 11:00N 59°41' E 028°26'0 0.0
2018-May-23 10:30N 59°41' E 028°26'0 0.0
2018-May-23 10:00N 59°41' E 028°26'0 0.0
2018-May-23 09:30N 59°41' E 028°26'0 0.0
2018-May-23 09:00N 59°41' E 028°26'0 0.0
2018-May-23 08:29N 59°41' E 028°26'0 0.0
2018-May-23 07:58N 59°41' E 028°26'0 0.0
2018-May-23 07:28N 59°41' E 028°26'0 0.0
2018-May-23 06:54N 59°41' E 028°26'0 0.0
2018-May-23 06:24N 59°41' E 028°26'0 0.0
2018-May-23 05:54N 59°41' E 028°26'0 0.0
2018-May-23 05:24N 59°41' E 028°26'0 0.0
2018-May-23 04:54N 59°41' E 028°26'0 0.0
2018-May-23 04:27N 59°41' E 028°26'0 0.0
2018-May-23 03:57N 59°41' E 028°26'0 0.0
2018-May-23 03:24N 59°41' E 028°26'0 0.0
2018-May-23 02:57N 59°41' E 028°26'0 0.0
2018-May-23 02:27N 59°41' E 028°26'0 0.0
2018-May-23 02:00N 59°41' E 028°26'0 0.0
2018-May-23 01:30N 59°41' E 028°26'0 0.0
2018-May-23 01:00N 59°41' E 028°26'0 0.0
2018-May-23 00:30N 59°41' E 028°26'0 0.0
2018-May-23 00:00N 59°41' E 028°26'0 0.0
2018-May-22 23:30N 59°41' E 028°26'0 0.0
2018-May-22 23:00N 59°41' E 028°26'0 0.0
2018-May-22 22:30N 59°41' E 028°26'0 0.0
2018-May-22 22:00N 59°41' E 028°26'0 0.0
2018-May-22 21:30N 59°41' E 028°26'0 0.0
2018-May-22 21:00N 59°41' E 028°26'0 0.0
2018-May-22 20:30N 59°41' E 028°26'0 0.0
2018-May-22 20:00N 59°41' E 028°26'0 0.0
2018-May-22 19:30N 59°41' E 028°26'0 0.0
2018-May-22 19:00N 59°41' E 028°26'0 0.0
2018-May-22 18:21N 59°41' E 028°26'0 0.0
2018-May-22 17:51N 59°41' E 028°26'0 0.0
2018-May-22 17:24N 59°41' E 028°26'0 0.0
2018-May-22 16:54N 59°41' E 028°26'0 0.0
2018-May-22 16:24N 59°41' E 028°26'0 0.0
2018-May-22 15:54N 59°41' E 028°26'0 0.0
2018-May-22 15:24N 59°41' E 028°26'0 0.0
2018-May-22 14:54N 59°41' E 028°26'0 0.0
2018-May-22 14:27N 59°41' E 028°26'0 0.0
2018-May-22 13:57N 59°41' E 028°26'0 0.0
2018-May-22 13:30N 59°41' E 028°26'0 0.0
2018-May-22 13:00N 59°41' E 028°26'0 0.0
2018-May-22 12:30N 59°41' E 028°26'0 0.0
2018-May-22 12:00N 59°41' E 028°26'0 0.0
2018-May-22 11:30N 59°41' E 028°26'0 0.0
2018-May-22 10:54N 59°41' E 028°26'0 0.0
2018-May-22 10:30N 59°41' E 028°26'0 0.0
2018-May-22 10:00N 59°41' E 028°26'0 0.0
2018-May-22 09:30N 59°41' E 028°26'0 0.0
2018-May-22 09:00N 59°41' E 028°26'0 0.0
2018-May-22 08:30N 59°41' E 028°26'0 0.0
2018-May-22 08:00N 59°41' E 028°26'0 0.0
2018-May-22 07:30N 59°41' E 028°26'0 0.0
2018-May-22 07:00N 59°41' E 028°26'0 0.0
2018-May-22 06:30N 59°41' E 028°26'0 0.0
2018-May-22 06:00N 59°41' E 028°26'0 0.0
2018-May-22 05:28N 59°41' E 028°26'0 0.0
2018-May-22 05:00N 59°41' E 028°26'0 0.0
2018-May-22 04:27N 59°41' E 028°26'0 0.0
2018-May-22 03:57N 59°41' E 028°26'0 0.0
2018-May-22 03:29N 59°41' E 028°26'0 0.0
2018-May-22 02:54N 59°41' E 028°26'0 0.0
2018-May-22 02:24N 59°41' E 028°26'0 0.0
2018-May-22 01:54N 59°41' E 028°26'0 0.0
2018-May-22 01:24N 59°41' E 028°26'0 0.0
2018-May-22 00:54N 59°41' E 028°26'0 0.0
2018-May-22 00:24N 59°41' E 028°26'0 0.0
2018-May-21 23:57N 59°41' E 028°26'0 0.0
2018-May-21 23:27N 59°41' E 028°26'0 0.0
2018-May-21 22:57N 59°41' E 028°26'0 0.0
2018-May-21 22:27N 59°41' E 028°26'0 0.0
2018-May-21 21:57N 59°41' E 028°26'0 0.0
2018-May-21 21:27N 59°41' E 028°26'0 0.0
2018-May-21 21:00N 59°41' E 028°26'0 0.0
2018-May-21 20:30N 59°41' E 028°26'0 0.0
2018-May-21 19:56N 59°41' E 028°26'0 0.0
2018-May-21 19:18N 59°41' E 028°26'0 0.0
2018-May-21 18:54N 59°41' E 028°26'0 0.0
2018-May-21 18:26N 59°41' E 028°26'0 0.0
2018-May-21 18:00N 59°41' E 028°26'0 0.0
2018-May-21 17:30N 59°41' E 028°26'0 0.0
2018-May-21 17:00N 59°41' E 028°26'0 0.0
2018-May-21 16:21N 59°41' E 028°26'0 0.0
2018-May-21 15:51N 59°41' E 028°26'0 0.0
2018-May-21 15:24N 59°41' E 028°26'0 0.0
2018-May-21 14:54N 59°41' E 028°26'0 0.0
2018-May-21 14:25N 59°41' E 028°26'0 0.0
2018-May-21 13:54N 59°41' E 028°26'0 0.0
2018-May-21 13:24N 59°41' E 028°26'0 0.0
2018-May-21 12:54N 59°41' E 028°26'0 0.0
2018-May-21 12:27N 59°41' E 028°26'0 0.0
2018-May-21 11:57N 59°41' E 028°26'0 0.0
2018-May-21 11:27N 59°41' E 028°26'0 0.0
2018-May-21 10:57N 59°41' E 028°26'0 0.0
2018-May-21 10:27N 59°41' E 028°26'0 0.0
2018-May-21 10:00N 59°41' E 028°26'0 0.0
2018-May-21 09:30N 59°41' E 028°26'0 0.0
2018-May-21 09:00N 59°41' E 028°26'0 0.0
2018-May-21 08:30N 59°41' E 028°26'0 0.0
2018-May-21 08:00N 59°41' E 028°26'0 0.0
2018-May-21 07:30N 59°41' E 028°26'0 0.0
2018-May-21 07:00N 59°41' E 028°26'0 0.0
2018-May-21 06:30N 59°41' E 028°26'0 0.0
2018-May-21 06:00N 59°41' E 028°26'0 0.0
2018-May-21 05:30N 59°41' E 028°26'0 0.0
2018-May-21 05:00N 59°41' E 028°26'0 0.0
2018-May-21 04:24N 59°41' E 028°26'0 0.0
2018-May-21 03:54N 59°41' E 028°26'0 0.0
2018-May-21 03:27N 59°41' E 028°26'0 0.0
2018-May-21 02:53N 59°41' E 028°26'0 0.0
2018-May-21 01:32N 59°41' E 028°26'0 0.0
2018-May-21 01:23N 59°41' E 028°26'0 0.5
2018-May-21 00:59N 59°41' E 028°25'3 5.2
2018-May-21 00:26N 59°42' E 028°20'3 5.3
2018-May-20 23:57N 59°43' E 028°16'3 5.3
2018-May-20 23:25N 59°46' E 028°13'0 0.2
2018-May-20 22:53N 59°46' E 028°13'0 0.0
2018-May-20 22:27N 59°46' E 028°13'0 0.0
2018-May-20 21:48N 59°46' E 028°13'0 0.1
2018-May-20 21:27N 59°46' E 028°13'0 0.1
2018-May-20 20:58N 59°46' E 028°13'0 0.1
2018-May-20 20:28N 59°46' E 028°13'0 0.0
2018-May-20 19:58N 59°46' E 028°13'0 0.1
2018-May-20 19:16N 59°46' E 028°13'0 0.0
2018-May-20 18:58N 59°46' E 028°13'0 0.1
2018-May-20 18:28N 59°46' E 028°13'0 0.1
2018-May-20 17:58N 59°46' E 028°13'0 0.0
2018-May-20 17:28N 59°46' E 028°13'0 0.1
2018-May-20 16:57N 59°46' E 028°13'0 0.0
2018-May-20 16:19N 59°46' E 028°13'0 0.1
2018-May-20 16:00N 59°46' E 028°13'0 0.1
2018-May-20 15:29N 59°46' E 028°13'0 0.0
2018-May-20 14:52N 59°46' E 028°13'0 0.0
2018-May-20 14:22N 59°46' E 028°13'0 0.1
2018-May-20 13:59N 59°46' E 028°13'0 0.1
2018-May-20 13:29N 59°46' E 028°13'0 0.1
2018-May-20 12:55N 59°46' E 028°13'0 0.0
2018-May-20 12:25N 59°46' E 028°13'0 0.0
2018-May-20 11:55N 59°46' E 028°13'0 0.0
2018-May-20 11:25N 59°46' E 028°13'0 0.0
2018-May-20 10:55N 59°46' E 028°13'0 0.0
2018-May-20 10:28N 59°46' E 028°13'0 0.0
2018-May-20 09:58N 59°46' E 028°13'0 0.1
2018-May-20 09:28N 59°46' E 028°13'0 0.0
2018-May-20 08:58N 59°46' E 028°13'0 0.0
2018-May-20 08:28N 59°46' E 028°13'0 0.0
2018-May-20 07:58N 59°46' E 028°13'0 0.0
2018-May-20 07:28N 59°46' E 028°13'0 0.1
2018-May-20 06:58N 59°46' E 028°13'0 0.5
2018-May-20 06:30N 59°46' E 028°13'3 6.2
2018-May-20 06:00N 59°49' E 028°11'510.4
2018-May-20 05:30N 59°54' E 028°09'510.8
2018-May-20 05:00N 59°60' E 028°08'511.0
2018-May-20 04:30N 60°05' E 028°06'5 9.4
2018-May-20 04:00N 60°09' E 028°01'510.9
2018-May-20 03:30N 60°10' E 027°51'510.5
2018-May-20 03:00N 60°09' E 027°41'914.4
2018-May-20 02:23N 60°04' E 027°25'510.4
2018-May-20 01:53N 60°02' E 027°16'611.2
2018-May-20 01:20N 59°58' E 027°06'2 6.2
2018-May-20 01:00N 59°58' E 027°02'510.9
2018-May-20 00:30N 59°59' E 026°51'511.0
2018-May-20 00:00N 59°60' E 026°40'511.1
2018-May-19 23:30N 59°58' E 026°30'611.0
2018-May-19 23:00N 59°57' E 026°19'611.1
2018-May-19 22:29N 59°55' E 026°08'611.1
2018-May-19 21:59N 59°54' E 025°58'510.8
2018-May-19 21:30N 59°52' E 025°48'610.8
2018-May-19 20:58N 59°51' E 025°36'510.7
2018-May-19 20:29N 59°50' E 025°26'510.5
2018-May-19 20:00N 59°49' E 025°16'510.5
2018-May-19 19:30N 59°48' E 025°06'510.4
2018-May-19 19:00N 59°47' E 024°56'510.8
2018-May-19 18:30N 59°45' E 024°46'510.9
2018-May-19 18:00N 59°44' E 024°35'510.9
2018-May-19 17:30N 59°43' E 024°24'810.9
2018-May-19 16:44N 59°41' E 024°09'510.8
2018-May-19 16:18N 59°39' E 023°60'310.9
2018-May-19 15:59N 59°38' E 023°53'511.1
2018-May-19 15:30N 59°36' E 023°44'611.5
2018-May-19 15:00N 59°34' E 023°33'611.3
2018-May-19 14:30N 59°33' E 023°22'611.1
2018-May-19 14:00N 59°31' E 023°12'611.1
2018-May-19 13:30N 59°29' E 023°02'611.1
2018-May-19 13:00N 59°27' E 022°51'2710.7
2018-May-19 10:29N 59°13' E 022°06'610.5
2018-May-19 09:55N 59°09' E 021°57'910.3
2018-May-19 09:05N 59°03' E 021°45'110.2
2018-May-19 09:00N 59°03' E 021°44'510.2
2018-May-19 08:30N 58°58' E 021°38'510.1
2018-May-19 08:00N 58°54' E 021°32'510.0
2018-May-19 07:30N 58°50' E 021°26'510.2
2018-May-19 06:59N 58°46' E 021°20'177 9.6
2018-May-18 12:36N 56°30' E 017°48'3 9.3
2018-May-18 12:16N 56°28' E 017°44'5 9.2
2018-May-18 11:42N 56°25' E 017°36'3 9.2
2018-May-18 11:22N 56°23' E 017°32'5 9.0
2018-May-18 10:51N 56°20' E 017°25'4 9.0
2018-May-18 10:28N 56°18' E 017°20'6 9.2
2018-May-18 09:49N 56°15' E 017°12'3 9.3
2018-May-18 09:30N 56°13' E 017°07'5 9.3
2018-May-18 09:00N 56°10' E 017°01'5 9.1
2018-May-18 08:30N 56°07' E 016°54'5 9.1
2018-May-18 08:00N 56°04' E 016°48'5 9.4
2018-May-18 07:30N 56°02' E 016°41'5 9.7
2018-May-18 07:00N 55°59' E 016°34'5 9.8
2018-May-18 06:30N 55°57' E 016°26'5 9.9
2018-May-18 06:00N 55°54' E 016°18'510.3
2018-May-18 05:30N 55°52' E 016°10'510.6
2018-May-18 05:00N 55°49' E 016°02'510.5
2018-May-18 04:30N 55°47' E 015°54'510.7
2018-May-18 04:00N 55°44' E 015°45'510.8
2018-May-18 03:30N 55°42' E 015°37'510.6
2018-May-18 03:00N 55°39' E 015°29'510.6
2018-May-18 02:30N 55°37' E 015°20'510.7
2018-May-18 02:00N 55°34' E 015°12'510.7
2018-May-18 01:30N 55°32' E 015°04'510.8
2018-May-18 01:00N 55°29' E 014°55'510.8
2018-May-18 00:30N 55°27' E 014°47'511.0
2018-May-18 00:00N 55°24' E 014°38'611.2
2018-May-17 23:30N 55°20' E 014°32'611.1
2018-May-17 23:00N 55°15' E 014°26'610.7
2018-May-17 22:24N 55°11' E 014°18'611.0
2018-May-17 21:51N 55°10' E 014°07'910.7
2018-May-17 21:01N 55°10' E 013°52'110.6
2018-May-17 20:54N 55°10' E 013°49'510.6
2018-May-17 20:27N 55°11' E 013°41'3710.5
2018-May-17 16:58N 55°17' E 012°38'710.8
2018-May-17 16:17N 55°25' E 012°39'311.6
2018-May-17 16:00N 55°28' E 012°40'611.5
2018-May-17 15:30N 55°33' E 012°42'612.1
2018-May-17 15:00N 55°39' E 012°41'611.9
2018-May-17 14:30N 55°45' E 012°41'611.7
2018-May-17 14:00N 55°51' E 012°39'611.9
2018-May-17 13:30N 55°57' E 012°37'611.2
2018-May-17 13:00N 56°02' E 012°39'2811.8
2018-May-17 10:39N 56°21' E 012°01'211.6
2018-May-17 10:29N 56°23' E 012°00'611.4
2018-May-17 09:56N 56°29' E 011°59'511.6
2018-May-17 09:29N 56°34' E 011°57'1611.9
2018-May-17 08:10N 56°49' E 011°49'  

Dump ship's entire track history